SFAL

Port Stanley Airport

Airport
ICAO code
SFAL
IATA Code
PSY
Summary
ICAO Region
CARSAM
ICAO Territory
Location

Stanley, Falkland Islands

Serving
Stanley
Elevation
75 ft
Coordinates
51° 41' 8" S , 57° 46' 40" W
KCC
Metar
Observation
SFAL 261550Z 34026G37KT 9999 BKN006 OVC012 06/04 Q0992
Station
Stanley Airport
Date/Time
2022-09-26 15:50:00
Wind direction
340°
Wind speed
26 kts
Lowest cloud amount
broken clouds
Temperature
6°C
Dew point
4°C
Humidity
86%
QNH
992 hPa
Weather condition
n/a

Port Stanley Airport is a STOL port in the Falkland Islands, two miles outside the capital, Stanley. The airport is the only civil-operated airport in the islands with a paved runway. The airport is operated by the Government of the Falkland Islands, and is only used for internal flights between the Islands. International flights use Mount Pleasant Airport which is operated by the Royal Air Force.

Climatology

(Köppen climate classification Cfc)

Runways

Designator Length Width Surface Rops
18/36 338 13 ASP No/No
9/27 918 19 ASP No/No

Airport map

Aerial View

SKYbrary Partners:

Safety knowledge contributed by: